Time;durP1;ratioP1;P1;durP2;ratioP2;P2;SDS_P1;SDS_P2;PMS_P1;PMS_P2;Temp;Humidity;BMP_temperature;BMP_pressure;BME280_temperature;BME280_humidity;BME280_pressure;Samples;Min_cycle;Max_cycle;Signal;HPM_P1;HPM_P2
2024/04/25 00:01:29;;;;;;;4.33;2.90;;;;;;;-145.69;66.41;52319.63;5527345;26;20738;-77
2024/04/25 00:03:57;;;;;;;6.40;2.70;;;;;;;-145.69;66.44;52323.59;5527279;26;20272;-75
2024/04/25 00:06:25;;;;;;;5.93;2.83;;;;;;;-145.69;66.55;52309.72;5525784;26;20767;-75
2024/04/25 00:08:56;;;;;;;4.93;3.07;;;;;;;-145.69;66.61;52309.72;5524262;26;20268;-78
2024/04/25 00:11:27;;;;;;;4.87;2.57;;;;;;;-145.69;66.52;52327.53;5522939;25;20257;-76
2024/04/25 00:13:58;;;;;;;7.90;3.47;;;;;;;-145.69;66.83;52321.59;5526157;26;20298;-75
2024/04/25 00:16:33;;;;;;;4.93;2.70;;;;;;;-145.69;66.43;52317.66;5526630;26;20222;-79
2024/04/25 00:19:01;;;;;;;4.10;2.20;;;;;;;-145.69;66.05;52287.94;5526451;26;20345;-77
2024/04/25 00:21:29;;;;;;;4.20;2.77;;;;;;;-145.69;65.48;52333.47;5526764;26;20264;-79
2024/04/25 00:24:00;;;;;;;4.73;2.77;;;;;;;-145.69;65.33;52313.69;5526510;26;20221;-77
2024/04/25 00:26:33;;;;;;;6.83;2.83;;;;;;;-145.69;65.37;52337.44;5525639;26;20819;-77
2024/04/25 00:29:01;;;;;;;5.97;2.70;;;;;;;-145.69;64.88;52313.69;5526419;26;20728;-77
2024/04/25 00:31:30;;;;;;;4.43;2.80;;;;;;;-145.69;64.96;52295.84;5526580;26;20221;-77
2024/04/25 00:33:58;;;;;;;4.17;2.73;;;;;;;-145.69;63.98;52317.66;5526328;26;20240;-76
2024/04/25 00:36:26;;;;;;;7.13;3.10;;;;;;;-145.69;64.04;52313.69;5526509;26;20277;-77
2024/04/25 00:38:56;;;;;;;4.90;2.43;;;;;;;-145.69;63.99;52317.66;5525966;26;20229;-77
2024/04/25 00:41:26;;;;;;;5.43;2.63;;;;;;;-145.69;63.70;52333.47;5526151;26;20273;-78
2024/04/25 00:43:57;;;;;;;5.57;2.70;;;;;;;-145.69;63.21;52313.69;5525515;26;20638;-78
2024/04/25 00:46:25;;;;;;;6.60;2.60;;;;;;;-145.69;63.28;52325.56;5525198;26;20256;-77
2024/04/25 00:48:58;;;;;;;4.60;2.50;;;;;;;-145.69;63.17;52315.66;5526401;26;20222;-76
2024/04/25 00:51:30;;;;;;;6.57;2.50;;;;;;;-145.69;63.19;52301.81;5525844;26;20259;-77
2024/04/25 00:53:59;;;;;;;4.50;2.47;;;;;;;-145.69;62.90;52301.81;5526583;26;20221;-78
2024/04/25 00:56:27;;;;;;;3.87;2.47;;;;;;;-145.69;62.84;52321.59;5525607;26;20301;-78
2024/04/25 00:59:01;;;;;;;4.37;3.10;;;;;;;-145.69;62.19;52305.75;5525756;26;20241;-77
2024/04/25 01:01:34;;;;;;;3.10;1.90;;;;;;;-145.69;62.30;52325.56;5526134;26;20589;-77
2024/04/25 01:04:03;;;;;;;6.60;2.70;;;;;;;-145.69;62.09;52291.91;5525954;26;20221;-77
2024/04/25 01:06:32;;;;;;;3.87;2.60;;;;;;;-145.69;61.62;52329.53;5525458;26;20272;-78
2024/04/25 01:09:06;;;;;;;4.67;2.50;;;;;;;-145.69;61.76;52307.75;5525901;26;20264;-77
2024/04/25 01:11:35;;;;;;;5.20;2.53;;;;;;;-145.69;61.49;52291.91;5524556;26;20269;-77
2024/04/25 01:14:08;;;;;;;3.73;2.17;;;;;;;-145.69;61.72;52337.44;5526392;26;20316;-78
2024/04/25 01:16:36;;;;;;;3.93;2.13;;;;;;;-145.69;61.78;52307.75;5525376;26;20237;-77
2024/04/25 01:19:05;;;;;;;6.03;2.40;;;;;;;-145.69;61.68;52309.72;5525550;26;20256;-77
2024/04/25 01:21:34;;;;;;;6.57;2.77;;;;;;;-145.69;61.74;52289.91;5525703;26;20723;-77
2024/04/25 01:24:04;;;;;;;6.83;3.13;;;;;;;-145.69;61.54;52293.88;5526117;26;20759;-76
2024/04/25 01:26:36;;;;;;;4.60;1.90;;;;;;;-145.69;61.61;52329.53;5526291;26;20320;-76
2024/04/25 01:29:13;;;;;;;2.73;2.20;;;;;;;-145.69;61.26;52272.09;5525599;26;20252;-76
2024/04/25 01:31:43;;;;;;;6.10;2.33;;;;;;;-145.69;61.41;52299.81;5525725;26;20823;-76
2024/04/25 01:34:14;;;;;;;4.03;2.60;;;;;;;-145.69;61.30;52297.84;5524849;26;20317;-76
2024/04/25 01:36:42;;;;;;;6.00;2.60;;;;;;;-145.69;61.69;52272.09;5525707;26;20596;-76
2024/04/25 01:39:11;;;;;;;3.77;2.50;;;;;;;-145.69;61.53;52305.75;5525811;26;20750;-76
2024/04/25 01:41:48;;;;;;;5.40;2.63;;;;;;;-145.69;61.29;52305.75;5525651;26;20256;-77
2024/04/25 01:44:16;;;;;;;4.83;2.43;;;;;;;-145.69;61.43;52333.47;5525009;26;20240;-77
2024/04/25 01:46:47;;;;;;;4.10;2.70;;;;;;;-145.69;61.25;52327.53;5525587;26;20704;-76
2024/04/25 01:49:21;;;;;;;6.97;2.80;;;;;;;-145.69;61.33;52327.53;5525673;26;20600;-76
2024/04/25 01:51:49;;;;;;;6.20;2.30;;;;;;;-145.69;61.49;52309.72;5525060;26;20332;-76
2024/04/25 01:54:17;;;;;;;4.67;2.80;;;;;;;-145.69;61.73;52305.75;5524925;26;20329;-77
2024/04/25 01:56:48;;;;;;;4.68;2.90;;;;;;;-145.69;62.54;52297.84;5523849;26;20475;-76
2024/04/25 01:59:16;;;;;;;5.10;2.77;;;;;;;-145.69;61.91;52278.03;5525588;26;20795;-76
2024/04/25 02:01:44;;;;;;;3.63;2.60;;;;;;;-145.69;62.16;52305.75;5525363;26;20233;-75
2024/04/25 02:04:12;;;;;;;4.27;2.30;;;;;;;-145.69;61.86;52305.75;5525451;26;20221;-76
2024/04/25 02:06:40;;;;;;;6.93;2.63;;;;;;;-145.69;61.95;52309.72;5523756;26;20230;-77
2024/04/25 02:09:09;;;;;;;9.33;3.17;;;;;;;-145.69;61.39;52325.56;5524953;26;20225;-77
2024/04/25 02:11:37;;;;;;;4.20;2.50;;;;;;;-145.69;61.85;52307.75;5524213;26;20261;-77
2024/04/25 02:14:07;;;;;;;3.63;2.50;;;;;;;-145.69;61.49;52317.66;5525156;26;20275;-76
2024/04/25 02:16:36;;;;;;;4.53;2.27;;;;;;;-145.69;61.69;52323.59;5524901;26;20221;-76
2024/04/25 02:19:04;;;;;;;4.80;2.63;;;;;;;-145.69;61.63;52270.13;5524743;26;20221;-76
2024/04/25 02:27:00;;;;;;;5.13;2.80;;;;;;;-145.69;62.20;52274.06;5527624;26;20771;-76
2024/04/25 02:29:31;;;;;;;3.83;2.47;;;;;;;-145.69;62.29;52305.75;5524415;26;20222;-77
2024/04/25 02:31:59;;;;;;;5.90;2.83;;;;;;;-145.69;62.40;52317.66;5527142;26;20704;-76
2024/04/25 02:34:27;;;;;;;4.90;2.87;;;;;;;-145.69;61.88;52278.03;5528556;26;20289;-77
2024/04/25 02:36:55;;;;;;;5.53;2.80;;;;;;;-145.69;61.62;52297.84;5528072;26;20244;-77
2024/04/25 02:39:21;;;;;;;4.97;2.57;;;;;;;-145.69;61.54;52315.66;5528193;26;20233;-77
2024/04/25 02:41:49;;;;;;;5.30;2.63;;;;;;;-145.69;61.84;52278.03;5528245;26;20709;-77
2024/04/25 02:44:17;;;;;;;6.27;2.90;;;;;;;-145.69;61.59;52317.66;5528369;26;20264;-76
2024/04/25 02:46:45;;;;;;;5.97;2.87;;;;;;;-145.69;61.67;52291.91;5527563;26;20771;-76
2024/04/25 02:49:13;;;;;;;4.70;2.27;;;;;;;-145.69;61.53;52295.84;5527862;26;20229;-76
2024/04/25 02:51:40;;;;;;;6.97;2.90;;;;;;;-145.69;61.37;52341.41;5528308;26;20282;-76
2024/04/25 02:54:09;;;;;;;6.87;2.47;;;;;;;-145.69;61.18;52321.59;5528270;26;20544;-76
2024/04/25 02:56:36;;;;;;;7.70;2.70;;;;;;;-145.69;61.38;52317.66;5528361;26;20321;-76
2024/04/25 02:59:05;;;;;;;5.07;2.13;;;;;;;-145.69;60.95;52299.81;5528150;26;20221;-76
2024/04/25 03:01:30;;;;;;;6.47;2.93;;;;;;;-145.69;61.03;52317.66;5528111;26;20233;-77
2024/04/25 03:04:01;;;;;;;5.17;1.97;;;;;;;-145.69;60.81;52282.00;5528412;26;20341;-76
2024/04/25 03:06:28;;;;;;;3.37;2.07;;;;;;;-145.69;61.01;52291.91;5527680;26;20264;-77
2024/04/25 03:08:56;;;;;;;3.47;1.90;;;;;;;-145.69;60.92;52309.72;5527754;26;20263;-78
2024/04/25 03:11:25;;;;;;;5.50;2.40;;;;;;;-145.69;60.89;52305.75;5527964;26;20225;-77
2024/04/25 03:13:54;;;;;;;3.90;2.40;;;;;;;-145.69;60.33;52289.91;5528185;26;20237;-77
2024/04/25 03:16:19;;;;;;;5.30;3.07;;;;;;;-145.69;60.33;52297.84;5527615;26;20293;-77
2024/04/25 03:18:47;;;;;;;5.43;1.87;;;;;;;-145.69;60.31;52321.59;5527526;26;20237;-77
2024/04/25 03:21:17;;;;;;;2.63;1.80;;;;;;;-145.69;60.61;52313.69;5527868;26;20576;-76
2024/04/25 03:23:45;;;;;;;3.33;2.27;;;;;;;-145.69;60.64;52283.97;5527933;26;20248;-77
2024/04/25 03:26:11;;;;;;;5.40;2.40;;;;;;;-145.69;60.11;52278.03;5527131;26;20639;-77
2024/04/25 03:28:42;;;;;;;4.70;2.23;;;;;;;-145.69;59.73;52285.97;5527611;26;20313;-77
2024/04/25 03:31:07;;;;;;;3.90;1.93;;;;;;;-145.69;58.91;52321.59;5527351;26;20563;-75
2024/04/25 03:33:36;;;;;;;5.50;2.07;;;;;;;-145.69;58.80;52293.88;5527744;26;20310;-76
2024/04/25 03:36:01;;;;;;;5.10;2.13;;;;;;;-145.69;58.57;52266.16;5527689;26;20549;-77
2024/04/25 03:38:33;;;;;;;2.93;2.23;;;;;;;-145.69;58.11;52297.84;5527351;26;20260;-77
2024/04/25 03:41:01;;;;;;;4.60;2.10;;;;;;;-145.69;58.34;52278.03;5526932;26;20557;-76
2024/04/25 03:43:29;;;;;;;2.90;2.20;;;;;;;-145.69;58.68;52287.94;5526820;26;20230;-76
2024/04/25 03:45:58;;;;;;;6.43;2.43;;;;;;;-145.69;58.24;52297.84;5527410;26;20619;-77
2024/04/25 03:48:29;;;;;;;3.40;2.17;;;;;;;-145.69;58.26;52307.75;5525974;26;20225;-78
2024/04/25 03:50:57;;;;;;;4.03;2.00;;;;;;;-145.69;57.98;52270.13;5527343;26;20288;-77
2024/04/25 03:53:26;;;;;;;3.87;2.53;;;;;;;-145.69;58.27;52315.66;5527314;26;20285;-77
2024/04/25 03:55:59;;;;;;;8.40;2.37;;;;;;;-145.69;58.39;52309.72;5527089;26;20708;-75
2024/04/25 03:58:30;;;;;;;4.70;2.27;;;;;;;-145.69;58.22;52285.97;5527349;26;20222;-76
2024/04/25 04:00:59;;;;;;;4.50;2.40;;;;;;;-145.69;58.14;52293.88;5527086;26;20230;-77
2024/04/25 04:03:27;;;;;;;5.33;2.50;;;;;;;-145.69;58.45;52325.56;5526825;26;20225;-76
2024/04/25 04:05:58;;;;;;;3.53;2.00;;;;;;;-145.69;58.58;52278.03;5526781;26;20268;-76
2024/04/25 04:08:26;;;;;;;4.33;2.20;;;;;;;-145.69;58.53;52319.63;5524776;26;20280;-78
2024/04/25 04:10:57;;;;;;;7.80;2.60;;;;;;;-145.69;58.98;52289.91;5508111;25;20807;-77
2024/04/25 04:13:25;;;;;;;5.10;2.70;;;;;;;-145.69;58.69;52282.00;5525977;26;20751;-78
2024/04/25 04:15:53;;;;;;;5.23;2.40;;;;;;;-145.69;58.86;52283.97;5526228;26;20237;-77
2024/04/25 04:18:21;;;;;;;2.80;2.07;;;;;;;-145.69;58.85;52289.91;5489392;26;20234;-76
2024/04/25 04:20:51;;;;;;;4.27;2.37;;;;;;;-145.69;58.95;52305.75;5489822;26;20222;-76
2024/04/25 04:23:21;;;;;;;3.97;2.27;;;;;;;-145.69;58.96;52280.00;5490129;26;20226;-76
2024/04/25 04:25:49;;;;;;;4.90;2.33;;;;;;;-145.69;58.59;52307.75;5489724;26;20234;-76
2024/04/25 04:28:21;;;;;;;5.90;2.40;;;;;;;-145.69;58.44;52289.91;5506689;26;20550;-77
2024/04/25 04:30:52;;;;;;;6.63;2.67;;;;;;;-145.69;57.99;52325.56;5526674;26;20222;-78
2024/04/25 04:33:23;;;;;;;6.90;2.80;;;;;;;-145.69;58.37;52285.97;5526790;26;20690;-77
2024/04/25 04:35:51;;;;;;;6.80;2.57;;;;;;;-145.69;58.19;52321.59;5526297;26;20241;-77
2024/04/25 04:38:19;;;;;;;6.50;2.47;;;;;;;-145.69;58.33;52341.41;5525887;26;20342;-78
2024/04/25 04:40:47;;;;;;;5.70;2.67;;;;;;;-145.69;58.50;52337.44;5526595;26;20695;-78
2024/04/25 04:43:15;;;;;;;6.07;2.73;;;;;;;-145.69;58.60;52293.88;5526872;26;20354;-76
2024/04/25 04:45:46;;;;;;;3.50;2.40;;;;;;;-145.69;58.61;52270.13;5526234;26;20276;-76
2024/04/25 04:48:14;;;;;;;6.47;2.30;;;;;;;-145.69;58.29;52299.81;5526423;26;20229;-78
2024/04/25 04:50:43;;;;;;;4.70;2.40;;;;;;;-145.69;58.20;52301.81;5526508;26;20364;-77
2024/04/25 04:53:12;;;;;;;3.03;2.37;;;;;;;-145.69;58.47;52270.13;5525363;26;20225;-77
2024/04/25 04:55:42;;;;;;;3.80;2.40;;;;;;;-145.69;58.33;52323.59;5525848;26;20727;-77
2024/04/25 04:58:10;;;;;;;6.33;2.30;;;;;;;-145.69;58.26;52321.59;5526228;26;20221;-77
2024/04/25 05:00:38;;;;;;;6.27;2.47;;;;;;;-145.69;57.88;52317.66;5526570;26;20233;-77
2024/04/25 05:03:14;;;;;;;4.80;2.70;;;;;;;-145.69;57.75;52299.81;5526096;26;20561;-76
2024/04/25 05:05:42;;;;;;;4.83;2.50;;;;;;;-145.69;58.01;52266.16;5526162;26;20561;-76
2024/04/25 05:08:13;;;;;;;4.37;2.50;;;;;;;-145.69;58.10;52301.81;5525775;26;20564;-77
2024/04/25 05:10:43;;;;;;;5.43;2.60;;;;;;;-145.69;57.73;52309.72;5525816;26;20222;-77
2024/04/25 05:13:12;;;;;;;3.33;2.20;;;;;;;-145.69;57.55;52327.53;5526117;26;20762;-77
2024/04/25 05:15:40;;;;;;;3.20;2.40;;;;;;;-145.69;57.80;52282.00;5525138;26;20229;-77
2024/04/25 05:18:09;;;;;;;3.97;2.60;;;;;;;-145.69;58.21;52305.75;5525726;26;20362;-76
2024/04/25 05:20:42;;;;;;;4.33;1.97;;;;;;;-145.69;57.88;52305.75;5526145;26;20268;-77
2024/04/25 05:23:11;;;;;;;5.37;2.33;;;;;;;-145.69;58.08;52276.06;5525966;26;20346;-76
2024/04/25 05:25:39;;;;;;;4.50;2.40;;;;;;;-145.69;57.95;52297.84;5524965;26;20233;-76
2024/04/25 05:28:07;;;;;;;4.93;2.50;;;;;;;-145.69;58.06;52289.91;5525956;26;20225;-77
2024/04/25 05:30:36;;;;;;;5.13;2.60;;;;;;;-145.69;57.85;52297.84;5525900;26;20705;-76
2024/04/25 05:33:05;;;;;;;3.43;2.20;;;;;;;-145.69;57.78;52295.84;5525775;26;20253;-76
2024/04/25 05:35:34;;;;;;;3.20;2.30;;;;;;;-145.69;57.58;52315.66;5525868;26;20225;-77
2024/04/25 05:38:07;;;;;;;5.20;2.20;;;;;;;-145.69;57.79;52321.59;5525914;26;20221;-78
2024/04/25 05:40:35;;;;;;;3.90;2.40;;;;;;;-145.69;57.30;52305.75;5525823;26;20285;-77
2024/04/25 05:43:06;;;;;;;3.77;2.50;;;;;;;-145.69;56.73;52309.72;5524632;26;20272;-76
2024/04/25 05:45:34;;;;;;;5.63;2.20;;;;;;;-145.69;56.97;52299.81;5524919;26;20229;-77
2024/04/25 05:48:03;;;;;;;4.17;2.27;;;;;;;-145.69;56.93;52301.81;5525068;26;20357;-77
2024/04/25 05:50:31;;;;;;;2.97;2.17;;;;;;;-145.69;56.67;52301.81;5525511;26;20221;-77
2024/04/25 05:52:59;;;;;;;3.70;2.03;;;;;;;-145.69;56.68;52293.88;5525175;26;20264;-78
2024/04/25 05:55:30;;;;;;;2.57;2.07;;;;;;;-145.69;56.47;52303.78;5525139;26;20241;-76
2024/04/25 05:57:58;;;;;;;4.17;2.40;;;;;;;-145.69;55.47;52309.72;5525493;26;20692;-77
2024/04/25 06:00:27;;;;;;;4.60;2.47;;;;;;;-145.69;55.00;52293.88;5525032;26;20284;-78
2024/04/25 06:02:55;;;;;;;4.63;2.40;;;;;;;-145.69;54.86;52287.94;5525534;26;20263;-77
2024/04/25 06:05:26;;;;;;;5.33;2.53;;;;;;;-145.69;54.28;52278.03;5524120;26;20225;-76
2024/04/25 06:07:54;;;;;;;9.03;2.30;;;;;;;-145.69;55.06;52285.97;5525305;26;20229;-76
2024/04/25 06:10:23;;;;;;;4.73;2.40;;;;;;;-145.69;54.59;52325.56;5524405;26;20237;-75
2024/04/25 06:12:53;;;;;;;5.40;2.00;;;;;;;-145.69;54.92;52301.81;5521346;25;20552;-75
2024/04/25 06:15:21;;;;;;;5.27;2.17;;;;;;;-145.69;54.33;52280.00;5524757;26;20749;-76
2024/04/25 06:18:02;;;;;;;;;;;;;;;;;;;;;
2024/04/25 06:20:34;;;;;;;3.40;1.80;;;;;;;-145.69;53.92;52297.84;5524419;26;20289;-77
2024/04/25 06:23:03;;;;;;;6.53;1.87;;;;;;;-145.69;53.21;52291.91;5524968;26;20297;-78
2024/04/25 06:25:31;;;;;;;4.77;2.00;;;;;;;-145.69;53.55;52283.97;5524519;26;20276;-77
2024/04/25 06:28:08;;;;;;;4.60;1.90;;;;;;;-145.69;52.39;52282.00;5524892;26;20387;-77
2024/04/25 06:30:36;;;;;;;3.27;2.00;;;;;;;-145.69;52.14;52297.84;5524821;26;20324;-77
2024/04/25 06:33:04;;;;;;;4.70;1.97;;;;;;;-145.69;53.74;52270.13;5524097;26;20225;-77
2024/04/25 06:35:33;;;;;;;5.43;1.93;;;;;;;-145.69;52.90;52266.16;5524193;26;20222;-76
2024/04/25 06:38:04;;;;;;;3.03;1.90;;;;;;;-145.69;52.49;52274.06;5524927;26;20541;-77
2024/04/25 06:40:35;;;;;;;5.10;2.17;;;;;;;-145.69;52.16;52270.13;5523889;26;20690;-77
2024/04/25 06:43:06;;;;;;;6.73;2.20;;;;;;;-145.69;51.93;52268.13;5524261;26;20721;-77
2024/04/25 06:45:34;;;;;;;5.03;1.97;;;;;;;-145.69;51.06;52282.00;5523410;26;20716;-76
2024/04/25 06:48:04;;;;;;;2.20;1.70;;;;;;;-145.69;50.93;52274.06;5524210;26;20339;-77
2024/04/25 06:50:33;;;;;;;4.57;2.10;;;;;;;-145.69;51.24;52272.09;5523171;26;20226;-78
2024/04/25 06:53:05;;;;;;;3.47;1.77;;;;;;;-145.69;51.27;52266.16;5524358;26;20773;-76
2024/04/25 06:55:33;;;;;;;4.03;2.03;;;;;;;-145.69;49.25;52274.06;5523713;26;20269;-77
2024/04/25 06:58:02;;;;;;;7.13;2.27;;;;;;;-145.69;49.28;52270.13;5523789;26;20229;-77
2024/04/25 07:00:35;;;;;;;2.70;1.63;;;;;;;-145.69;48.96;52252.28;5524376;26;20222;-76
2024/04/25 07:03:04;;;;;;;5.17;1.83;;;;;;;-145.69;48.89;52287.94;5523292;26;20732;-77
2024/04/25 07:05:35;;;;;;;4.43;1.90;;;;;;;-145.69;49.90;52258.22;5524007;26;20225;-76
2024/04/25 07:08:03;;;;;;;5.00;1.77;;;;;;;-145.69;49.15;52268.13;5524321;26;20553;-76
2024/04/25 07:10:31;;;;;;;4.00;1.80;;;;;;;-145.69;47.78;52270.13;5523515;26;20285;-76
2024/04/25 07:12:59;;;;;;;4.73;1.77;;;;;;;-145.69;48.87;52262.19;5523716;26;20265;-77
2024/04/25 07:15:27;;;;;;;4.57;1.60;;;;;;;-145.69;47.56;52226.53;5524116;26;20229;-76
2024/04/25 07:17:59;;;;;;;3.77;2.10;;;;;;;-145.69;47.63;52250.31;5526358;26;20221;-76
2024/04/25 07:20:30;;;;;;;3.73;2.33;;;;;;;-145.69;49.08;52212.69;5527251;26;20229;-77
2024/04/25 07:22:59;;;;;;;2.53;1.43;;;;;;;-145.69;47.44;52214.66;5526908;26;20226;-77
2024/04/25 07:25:29;;;;;;;5.67;1.80;;;;;;;-145.69;47.69;52270.13;5527250;26;20720;-75
2024/04/25 07:28:00;;;;;;;6.17;2.37;;;;;;;-145.69;48.11;52254.28;5526408;26;20221;-75
2024/04/25 07:30:34;;;;;;;4.83;1.73;;;;;;;-145.69;47.75;52218.63;5527609;26;21021;-76
2024/04/25 07:33:05;;;;;;;2.30;1.50;;;;;;;-145.69;47.81;52252.28;5527523;26;20220;-76
2024/04/25 07:35:34;;;;;;;3.70;1.73;;;;;;;-145.69;47.78;52258.22;5527162;26;20230;-76
2024/04/25 07:38:04;;;;;;;3.70;1.70;;;;;;;-145.69;48.50;52258.22;5527829;26;20221;-76
2024/04/25 07:40:36;;;;;;;4.77;1.80;;;;;;;-145.69;48.23;52246.34;5527602;26;20237;-76
2024/04/25 07:43:09;;;;;;;3.17;1.60;;;;;;;-145.69;47.24;52272.09;5526825;26;20222;-76
2024/04/25 07:45:41;;;;;;;3.77;1.60;;;;;;;-145.69;46.77;52232.50;5527219;26;20229;-76
2024/04/25 07:48:12;;;;;;;3.30;1.57;;;;;;;-145.69;46.06;52254.28;5527269;26;20225;-76
2024/04/25 07:50:43;;;;;;;4.80;2.00;;;;;;;-145.69;45.37;52212.69;5527112;26;20226;-76
2024/04/25 07:53:11;;;;;;;10.00;1.90;;;;;;;-145.69;46.55;52250.31;5527505;26;20223;-76
2024/04/25 07:55:42;;;;;;;5.10;1.73;;;;;;;-145.69;46.79;52254.28;5527109;26;20268;-76
2024/04/25 07:58:14;;;;;;;3.83;1.60;;;;;;;-145.69;46.76;52218.63;5526494;26;20230;-76
2024/04/25 08:00:42;;;;;;;5.63;1.87;;;;;;;-145.69;46.12;52236.44;5526635;26;20225;-77
2024/04/25 08:03:15;;;;;;;2.83;1.37;;;;;;;-145.69;45.37;52222.59;5527009;26;20326;-77
2024/04/25 08:05:43;;;;;;;3.93;1.50;;;;;;;-145.69;44.91;52228.53;5526908;26;20268;-77
2024/04/25 08:08:11;;;;;;;3.73;1.70;;;;;;;-145.69;44.40;52206.75;5526714;26;20289;-76
2024/04/25 08:10:40;;;;;;;2.10;1.40;;;;;;;-145.69;43.99;52234.47;5527192;26;20221;-77
2024/04/25 08:13:09;;;;;;;6.13;1.60;;;;;;;-145.69;43.02;52218.63;5498576;25;20344;-76
2024/04/25 08:15:37;;;;;;;4.70;1.60;;;;;;;-145.69;42.59;52236.44;5509078;26;20450;-76
2024/04/25 08:18:14;;;;;;;4.80;1.53;;;;;;;-145.69;42.87;52208.72;5526093;26;20238;-75
2024/04/25 08:20:44;;;;;;;2.70;1.30;;;;;;;-145.69;41.16;52206.75;5526642;26;20329;-76
2024/04/25 08:23:18;;;;;;;4.73;1.30;;;;;;;-145.69;40.82;52194.88;5526569;26;20641;-76
2024/04/25 08:25:46;;;;;;;2.07;1.40;;;;;;;-145.69;41.03;52202.78;5525772;26;20264;-76
2024/04/25 08:28:17;;;;;;;3.43;1.50;;;;;;;-145.69;39.71;52175.06;5526103;26;20280;-75
2024/04/25 08:30:46;;;;;;;4.17;2.33;;;;;;;-145.69;40.43;52198.81;5526165;26;20229;-76
2024/04/25 08:33:17;;;;;;;2.97;1.40;;;;;;;-145.69;39.60;52196.84;5519894;26;20226;-76
2024/04/25 08:35:46;;;;;;;3.67;1.50;;;;;;;-145.69;40.18;52167.13;5489541;26;20223;-76
2024/04/25 08:38:15;;;;;;;8.87;3.63;;;;;;;-145.69;39.72;52236.44;5489778;26;20231;-76
2024/04/25 08:40:47;;;;;;;4.70;1.70;;;;;;;-145.69;40.32;52163.19;5489313;26;20274;-77
2024/04/25 08:43:18;;;;;;;3.97;1.80;;;;;;;-145.69;39.82;52228.53;5512605;26;20229;-76
2024/04/25 08:45:47;;;;;;;2.77;1.70;;;;;;;-145.69;41.18;52200.81;5526659;26;20226;-75
2024/04/25 08:48:17;;;;;;;4.17;1.70;;;;;;;-145.69;40.65;52190.91;5526592;26;20225;-77
2024/04/25 08:50:46;;;;;;;2.60;1.60;;;;;;;-145.69;39.88;52184.97;5525327;26;20229;-77
2024/04/25 08:53:20;;;;;;;4.00;1.70;;;;;;;-145.69;39.18;52194.88;5533684;25;20571;-76
2024/04/25 08:55:53;;;;;;;2.90;1.40;;;;;;;-145.69;39.15;52210.72;5486416;26;20280;-77
2024/04/25 08:58:21;;;;;;;4.73;1.80;;;;;;;-145.69;39.61;52226.53;5522390;26;20340;-76
2024/04/25 09:00:53;;;;;;;3.43;1.33;;;;;;;-145.69;39.75;52220.59;5487502;26;20290;-76
2024/04/25 09:03:24;;;;;;;3.30;1.40;;;;;;;-145.69;39.73;52186.94;5503357;26;20229;-77
2024/04/25 09:05:52;;;;;;;3.93;1.50;;;;;;;-145.69;39.39;52194.88;5526394;26;20252;-76
2024/04/25 09:08:24;;;;;;;2.80;1.37;;;;;;;-145.69;38.91;52190.91;5525999;26;20226;-76
2024/04/25 09:10:52;;;;;;;3.73;1.50;;;;;;;-145.69;37.86;52169.13;5525328;26;20229;-77
2024/04/25 09:13:21;;;;;;;4.83;1.60;;;;;;;-145.69;38.58;52212.69;5525690;26;20229;-76
2024/04/25 09:15:49;;;;;;;3.67;1.43;;;;;;;-145.69;39.04;52202.78;5523462;26;20260;-75
2024/04/25 09:18:18;;;;;;;4.90;1.83;;;;;;;-145.69;39.09;52200.81;5525357;26;20236;-75
2024/04/25 09:20:49;;;;;;;3.30;1.70;;;;;;;-145.69;39.01;52222.59;5525443;26;20221;-75
2024/04/25 09:23:17;;;;;;;4.30;1.50;;;;;;;-145.69;38.90;52204.75;5526171;26;20223;-77
2024/04/25 09:25:45;;;;;;;6.40;1.40;;;;;;;-145.69;39.54;52177.03;5524463;26;20238;-76
2024/04/25 09:28:14;;;;;;;6.40;1.50;;;;;;;-145.69;39.53;52184.97;5526038;26;20337;-76
2024/04/25 09:30:42;;;;;;;5.07;1.43;;;;;;;-145.69;39.24;52153.28;5525211;26;20735;-76
2024/04/25 09:33:14;;;;;;;5.68;1.50;;;;;;;-145.69;39.06;52202.78;5525883;26;20225;-76
2024/04/25 09:35:44;;;;;;;2.80;1.47;;;;;;;-145.69;38.48;52192.88;5525350;26;20708;-76
2024/04/25 09:38:15;;;;;;;3.83;1.60;;;;;;;-145.69;39.17;52179.03;5525606;26;20226;-76
2024/04/25 09:40:45;;;;;;;8.55;1.60;;;;;;;-145.69;38.70;52194.88;5524675;26;20221;-77
2024/04/25 09:43:14;;;;;;;3.10;1.40;;;;;;;-145.69;38.42;52179.03;5525329;26;20298;-77
2024/04/25 09:45:45;;;;;;;4.50;1.60;;;;;;;-145.69;37.52;52175.06;5523484;26;20229;-76
2024/04/25 09:48:15;;;;;;;2.90;1.40;;;;;;;-145.69;36.78;52167.13;5525598;26;20221;-77
2024/04/25 09:50:49;;;;;;;3.33;1.33;;;;;;;-145.69;37.07;52167.13;5525894;26;20633;-76
2024/04/25 09:53:26;;;;;;;3.70;1.40;;;;;;;-145.69;36.96;52159.22;5525907;26;20217;-76
2024/04/25 09:55:54;;;;;;;4.20;1.50;;;;;;;-145.69;37.67;52186.94;5525148;26;20237;-77
2024/04/25 09:58:29;;;;;;;4.13;1.60;;;;;;;-145.69;38.04;52190.91;5525485;26;20225;-77
2024/04/25 10:00:58;;;;;;;2.90;1.70;;;;;;;-145.69;40.95;52190.91;5525516;26;20350;-77
2024/04/25 10:03:30;;;;;;;4.23;2.17;;;;;;;-145.69;42.19;52175.06;5525517;26;20228;-76
2024/04/25 10:05:58;;;;;;;4.83;2.10;;;;;;;-145.69;43.18;52200.81;5525629;26;20572;-76
2024/04/25 10:08:32;;;;;;;3.90;1.90;;;;;;;-145.69;43.77;52194.88;5524725;26;20343;-77
2024/04/25 10:11:11;;;;;;;2.93;1.60;;;;;;;-145.69;42.53;52222.59;5525288;26;20229;-76
2024/04/25 10:13:49;;;;;;;3.10;1.77;;;;;;;-145.69;42.17;52194.88;5524720;26;20293;-76
2024/04/25 10:16:18;;;;;;;5.67;1.80;;;;;;;-145.69;42.49;52194.88;5488315;26;20269;-77
2024/04/25 10:18:50;;;;;;;3.70;1.77;;;;;;;-145.69;40.70;52165.16;5488314;26;20226;-77
2024/04/25 10:21:19;;;;;;;7.30;2.37;;;;;;;-145.69;40.54;52186.94;5509514;25;20225;-78
2024/04/25 10:23:52;;;;;;;2.47;1.60;;;;;;;-145.69;40.26;52179.03;5525191;26;20265;-77
2024/04/25 10:26:27;;;;;;;3.67;1.43;;;;;;;-145.69;39.70;52163.19;5524882;26;20271;-76
2024/04/25 10:29:02;;;;;;;2.95;1.70;;;;;;;-145.69;38.94;52147.34;5524885;26;20346;-77
2024/04/25 10:31:35;;;;;;;3.33;1.30;;;;;;;-145.69;36.52;52173.09;5523908;26;20259;-76
2024/04/25 10:34:07;;;;;;;3.15;1.67;;;;;;;-145.69;36.93;52131.50;5525030;26;20333;-76
2024/04/25 10:36:35;;;;;;;4.53;2.78;;;;;;;-145.69;38.37;52163.19;5524813;26;20556;-76
2024/04/25 10:39:06;;;;;;;4.32;1.40;;;;;;;-145.69;37.92;52151.28;5524557;26;20285;-77
2024/04/25 10:41:35;;;;;;;4.00;2.08;;;;;;;-145.69;37.83;52147.34;5524601;26;20743;-76
2024/04/25 10:44:03;;;;;;;3.53;1.40;;;;;;;-145.69;35.67;52175.06;5524070;26;20802;-76
2024/04/25 10:46:33;;;;;;;3.30;1.50;;;;;;;-145.69;36.24;52163.19;5524142;26;20264;-76
2024/04/25 10:49:02;;;;;;;5.18;1.13;;;;;;;-145.69;36.14;52167.13;5524177;26;20235;-76
2024/04/25 10:51:34;;;;;;;2.97;1.00;;;;;;;-145.69;36.54;52147.34;5523941;26;20751;-77
2024/04/25 10:54:05;;;;;;;3.58;1.77;;;;;;;-145.69;36.68;52151.28;5491281;26;20258;-76
2024/04/25 10:56:34;;;;;;;4.97;1.75;;;;;;;-145.69;36.96;52131.50;5491335;26;20261;-76
2024/04/25 10:59:02;;;;;;;5.18;1.77;;;;;;;-145.69;37.02;52155.25;5491202;26;20816;-76
2024/04/25 11:01:32;;;;;;;2.13;1.23;;;;;;;-145.69;35.70;52113.66;5500076;26;20297;-76
2024/04/25 11:04:02;;;;;;;3.85;2.10;;;;;;;-145.69;36.60;52155.25;5528059;26;20297;-77
2024/04/25 11:06:38;;;;;;;5.68;1.58;;;;;;;-145.69;36.39;52143.38;5527337;26;20217;-76
2024/04/25 11:09:12;;;;;;;3.17;1.52;;;;;;;-145.69;37.01;52133.47;5526886;26;20243;-77
2024/04/25 11:11:41;;;;;;;4.43;1.50;;;;;;;-145.69;37.12;52161.19;5527771;26;20233;-77
2024/04/25 11:14:09;;;;;;;3.33;1.30;;;;;;;-145.69;37.19;52135.47;5527690;26;20222;-76
2024/04/25 11:16:42;;;;;;;1.98;1.45;;;;;;;-145.69;37.55;52181.00;5527945;26;20325;-76
2024/04/25 11:19:11;;;;;;;2.45;1.40;;;;;;;-145.69;37.33;52157.25;5528092;26;20280;-76
2024/04/25 11:21:40;;;;;;;3.78;1.60;;;;;;;-145.69;36.56;52145.34;5527350;26;20221;-76
2024/04/25 11:24:11;;;;;;;4.70;1.70;;;;;;;-145.69;36.68;52143.38;5527601;26;20284;-76
2024/04/25 11:26:39;;;;;;;9.52;4.00;;;;;;;-145.69;36.68;52127.53;5528197;26;20237;-76
2024/04/25 11:29:08;;;;;;;8.55;4.72;;;;;;;-145.69;36.26;52131.50;5527728;26;20233;-75
2024/04/25 11:31:36;;;;;;;3.60;1.50;;;;;;;-145.69;36.17;52155.25;5527482;26;20256;-76
2024/04/25 11:34:05;;;;;;;2.17;1.27;;;;;;;-145.69;35.67;52151.28;5527156;26;20230;-76
2024/04/25 11:36:34;;;;;;;6.75;1.50;;;;;;;-145.69;36.50;52127.53;5527474;26;20321;-76